Time;durP1;ratioP1;P1;durP2;ratioP2;P2;SDS_P1;SDS_P2;PMS_P1;PMS_P2;Temp;Humidity;BMP_temperature;BMP_pressure;BME280_temperature;BME280_humidity;BME280_pressure;Samples;Min_cycle;Max_cycle;Signal;HPM_P1;HPM_P2
2023/06/29 00:00:28;;;;;;;0.00;0.00;;;;;;;-145.01;100.00;64805.59;5081322;28;20064;-59
2023/06/29 00:02:55;;;;;;;0.00;0.00;;;;;;;-145.01;100.00;64805.59;5077220;28;20047;-59
2023/06/29 00:05:23;;;;;;;0.00;0.00;;;;;;;-145.01;100.00;64805.59;5076277;28;20506;-60
2023/06/29 00:07:50;;;;;;;0.03;0.00;;;;;;;-145.01;100.00;64805.59;5083989;28;20036;-59
2023/06/29 00:10:18;;;;;;;0.08;0.08;;;;;;;-145.01;100.00;64805.59;5080694;28;20044;-59
2023/06/29 00:12:47;;;;;;;0.00;0.00;;;;;;;-145.01;100.00;64805.59;5073358;28;20045;-59
2023/06/29 00:15:14;;;;;;;0.00;0.00;;;;;;;-145.01;100.00;64805.59;5082701;28;20048;-60
2023/06/29 00:17:44;;;;;;;0.00;0.00;;;;;;;-145.01;100.00;64805.59;5084122;28;20541;-59
2023/06/29 00:20:12;;;;;;;0.10;0.10;;;;;;;-145.01;100.00;64805.59;5081707;28;20491;-59
2023/06/29 00:22:40;;;;;;;0.00;0.00;;;;;;;-145.01;100.00;64805.59;5082054;28;20072;-59
2023/06/29 00:25:09;;;;;;;0.00;0.00;;;;;;;-145.01;100.00;64805.59;5079154;28;20064;-59
2023/06/29 00:27:36;;;;;;;0.00;0.00;;;;;;;-145.01;100.00;64805.59;5077502;28;20045;-59
2023/06/29 00:30:07;;;;;;;0.00;0.00;;;;;;;-145.01;100.00;64805.59;5083928;28;20587;-59
2023/06/29 00:32:34;;;;;;;0.00;0.00;;;;;;;-145.01;100.00;64805.59;5077718;28;20040;-59
2023/06/29 00:35:01;;;;;;;0.00;0.00;;;;;;;-145.01;100.00;64805.59;5072934;28;20048;-59
2023/06/29 00:37:29;;;;;;;0.05;0.05;;;;;;;-145.01;100.00;64805.59;5080835;28;20071;-59
2023/06/29 00:39:56;;;;;;;0.00;0.00;;;;;;;-145.01;100.00;64805.59;5070816;28;20050;-59
2023/06/29 00:42:26;;;;;;;0.00;0.00;;;;;;;-145.01;100.00;64805.59;5077468;28;20036;-59
2023/06/29 00:44:53;;;;;;;0.00;0.00;;;;;;;-145.01;100.00;64805.59;5073402;28;20045;-59
2023/06/29 00:47:23;;;;;;;0.00;0.00;;;;;;;-145.01;100.00;64805.59;5089780;28;20048;-59
2023/06/29 00:49:50;;;;;;;0.00;0.00;;;;;;;-145.01;100.00;64805.59;5072542;28;20044;-59
2023/06/29 00:52:18;;;;;;;0.00;0.00;;;;;;;-145.01;100.00;64805.59;5069235;28;20048;-59
2023/06/29 00:54:46;;;;;;;0.00;0.00;;;;;;;-145.01;100.00;64805.59;5074927;28;20059;-59
2023/06/29 00:57:13;;;;;;;0.00;0.00;;;;;;;-145.01;100.00;64805.59;5077418;28;20487;-59
2023/06/29 00:59:41;;;;;;;0.10;0.05;;;;;;;-145.01;100.00;64805.59;5096807;28;20060;-60
2023/06/29 01:02:09;;;;;;;0.00;0.00;;;;;;;-145.01;100.00;64805.59;5081409;28;20048;-59
2023/06/29 01:04:38;;;;;;;0.03;0.03;;;;;;;-145.01;100.00;64805.59;5070861;28;20501;-59
2023/06/29 01:07:08;;;;;;;0.00;0.00;;;;;;;-145.01;100.00;64805.59;5076132;28;20402;-59
2023/06/29 01:09:36;;;;;;;0.00;0.00;;;;;;;-145.01;100.00;64805.59;5071464;28;20893;-59
2023/06/29 01:12:07;;;;;;;0.00;0.00;;;;;;;-145.01;100.00;64805.59;5073898;28;20095;-59
2023/06/29 01:14:34;;;;;;;0.08;0.08;;;;;;;-145.01;100.00;64805.59;5074344;28;20048;-59
2023/06/29 01:17:04;;;;;;;0.15;0.10;;;;;;;-145.01;100.00;64805.59;5077934;28;20045;-59
2023/06/29 01:19:32;;;;;;;0.00;0.00;;;;;;;-145.01;100.00;64805.59;5075188;28;20029;-59
2023/06/29 01:22:02;;;;;;;0.10;0.10;;;;;;;-145.01;100.00;64805.59;5097621;28;20045;-59
2023/06/29 01:24:38;;;;;;;0.00;0.00;;;;;;;-145.01;100.00;64805.59;5092815;28;20043;-59
2023/06/29 01:27:06;;;;;;;0.00;0.00;;;;;;;-145.01;100.00;64805.59;5072927;28;20487;-59
2023/06/29 01:29:33;;;;;;;0.05;0.05;;;;;;;-145.01;100.00;64805.59;5075642;28;20115;-59
2023/06/29 01:32:03;;;;;;;0.00;0.00;;;;;;;-145.01;100.00;64805.59;5076058;28;20052;-59
2023/06/29 01:34:32;;;;;;;0.00;0.00;;;;;;;-145.01;100.00;64805.59;5077559;28;20040;-59
2023/06/29 01:37:02;;;;;;;0.10;0.10;;;;;;;-145.01;100.00;64805.59;5080461;28;20409;-59
2023/06/29 01:39:31;;;;;;;0.10;0.10;;;;;;;-145.01;100.00;64805.59;5082337;28;20479;-59
2023/06/29 01:42:00;;;;;;;0.00;0.00;;;;;;;-145.01;100.00;64805.59;5083651;28;20052;-59
2023/06/29 01:44:29;;;;;;;0.00;0.00;;;;;;;-145.01;100.00;64805.59;5071652;28;20399;-59
2023/06/29 01:46:56;;;;;;;0.20;0.10;;;;;;;-145.01;100.00;64805.59;5085020;28;20043;-60
2023/06/29 01:49:23;;;;;;;0.10;0.10;;;;;;;-145.01;100.00;64805.59;5068899;28;20144;-59
2023/06/29 01:51:51;;;;;;;0.00;0.00;;;;;;;-145.01;100.00;64805.59;5080109;28;20056;-59
2023/06/29 01:54:18;;;;;;;0.00;0.00;;;;;;;-145.01;100.00;64805.59;5086855;28;20063;-60
2023/06/29 01:56:45;;;;;;;0.00;0.00;;;;;;;-145.01;100.00;64805.59;5093163;28;20498;-59
2023/06/29 01:59:14;;;;;;;0.00;0.00;;;;;;;-145.01;100.00;64805.59;5073019;28;20050;-59
2023/06/29 02:01:42;;;;;;;0.00;0.00;;;;;;;-145.01;100.00;64805.59;5068509;28;20039;-59
2023/06/29 02:04:09;;;;;;;0.05;0.05;;;;;;;-145.01;100.00;64805.59;5076759;28;20048;-59
2023/06/29 02:06:36;;;;;;;0.00;0.00;;;;;;;-145.01;100.00;64805.59;5077640;28;20048;-59
2023/06/29 02:09:05;;;;;;;0.10;0.10;;;;;;;-145.01;100.00;64805.59;5071644;28;20056;-59
2023/06/29 02:11:33;;;;;;;0.10;0.10;;;;;;;-145.01;100.00;64805.59;5069852;28;20536;-59
2023/06/29 02:14:00;;;;;;;0.00;0.00;;;;;;;-145.01;100.00;64805.59;5078038;28;20044;-59
2023/06/29 02:16:29;;;;;;;0.00;0.00;;;;;;;-145.01;100.00;64805.59;5069261;28;20060;-59
2023/06/29 02:18:56;;;;;;;0.10;0.10;;;;;;;-145.01;100.00;64805.59;5075013;28;20069;-59
2023/06/29 02:21:24;;;;;;;0.10;0.10;;;;;;;-145.01;100.00;64805.59;5077899;28;20135;-59
2023/06/29 02:23:51;;;;;;;0.00;0.00;;;;;;;-145.01;100.00;64805.59;5076394;28;20552;-60
2023/06/29 02:26:18;;;;;;;0.00;0.00;;;;;;;-145.01;100.00;64805.59;5075552;28;20053;-59
2023/06/29 02:28:46;;;;;;;0.10;0.10;;;;;;;-145.01;100.00;64805.59;5085280;28;20047;-60
2023/06/29 02:31:15;;;;;;;0.00;0.00;;;;;;;-145.01;100.00;64805.59;5073874;28;20084;-59
2023/06/29 02:33:46;;;;;;;0.00;0.00;;;;;;;-145.01;100.00;64805.59;5072581;28;20052;-59
2023/06/29 02:36:15;;;;;;;0.00;0.00;;;;;;;-145.01;100.00;64805.59;5071150;28;20040;-59
2023/06/29 02:38:43;;;;;;;0.00;0.00;;;;;;;-145.01;100.00;64805.59;5079534;28;20500;-59
2023/06/29 02:41:10;;;;;;;0.00;0.00;;;;;;;-145.01;100.00;64805.59;5078579;28;20521;-59
2023/06/29 02:43:38;;;;;;;0.00;0.00;;;;;;;-145.01;100.00;64805.59;5072095;28;20067;-59
2023/06/29 02:46:05;;;;;;;0.00;0.00;;;;;;;-145.01;100.00;64805.59;5082690;28;20648;-59
2023/06/29 02:48:35;;;;;;;;;;;;;;;-145.01;100.00;64805.59;5077371;28;20049;-59
2023/06/29 02:51:05;;;;;;;0.08;0.08;;;;;;;-145.01;100.00;64805.59;5079629;28;19925;-59
2023/06/29 02:53:32;;;;;;;;;;;;;;;-145.01;100.00;64805.59;5068940;28;20051;-59
2023/06/29 02:56:00;;;;;;;0.00;0.00;;;;;;;-145.01;100.00;64805.59;5078726;28;19993;-59
2023/06/29 02:58:28;;;;;;;0.00;0.00;;;;;;;-145.01;100.00;64805.59;5083725;28;20074;-59
2023/06/29 03:00:56;;;;;;;0.10;0.10;;;;;;;-145.01;100.00;64805.59;5101200;28;20039;-59
2023/06/29 03:03:23;;;;;;;0.10;0.10;;;;;;;-145.01;100.00;64805.59;5072769;28;20044;-59
2023/06/29 03:05:50;;;;;;;0.00;0.00;;;;;;;-145.01;100.00;64805.59;5079496;28;20063;-59
2023/06/29 03:08:19;;;;;;;0.10;0.10;;;;;;;-145.01;100.00;64805.59;5083033;28;20047;-59
2023/06/29 03:10:46;;;;;;;0.13;0.10;;;;;;;-145.01;100.00;64805.59;5095856;28;20064;-59
2023/06/29 03:13:14;;;;;;;0.10;0.10;;;;;;;-145.01;100.00;64805.59;5081577;28;20570;-59
2023/06/29 03:15:41;;;;;;;0.00;0.00;;;;;;;-145.01;100.00;64805.59;5079307;28;20048;-59
2023/06/29 03:18:09;;;;;;;0.10;0.10;;;;;;;-145.01;100.00;64805.59;5079336;28;20132;-59
2023/06/29 03:20:36;;;;;;;0.00;0.00;;;;;;;-145.01;100.00;64805.59;5083067;28;20154;-59
2023/06/29 03:23:04;;;;;;;0.10;0.10;;;;;;;-145.01;100.00;64805.59;5082378;28;20071;-60
2023/06/29 03:25:32;;;;;;;0.00;0.00;;;;;;;-145.01;100.00;64805.59;5082951;28;20521;-60
2023/06/29 03:28:00;;;;;;;0.10;0.10;;;;;;;-145.01;100.00;64805.59;5085738;28;20161;-59
2023/06/29 03:30:27;;;;;;;0.00;0.00;;;;;;;-145.01;100.00;64805.59;5083960;28;20046;-59
2023/06/29 03:32:58;;;;;;;0.00;0.00;;;;;;;-145.01;100.00;64805.59;5076251;28;20036;-60
2023/06/29 03:35:25;;;;;;;0.00;0.00;;;;;;;-145.01;100.00;64805.59;5081845;28;20084;-59
2023/06/29 03:37:53;;;;;;;0.00;0.00;;;;;;;-145.01;100.00;64805.59;5080941;28;20040;-59
2023/06/29 03:40:20;;;;;;;0.00;0.00;;;;;;;-145.01;100.00;64805.59;5078774;28;20094;-59
2023/06/29 03:42:49;;;;;;;0.08;0.08;;;;;;;-145.01;100.00;64805.59;5075491;28;20043;-59
2023/06/29 03:45:17;;;;;;;0.00;0.00;;;;;;;-145.01;100.00;64805.59;5079461;28;20564;-59
2023/06/29 03:47:44;;;;;;;0.10;0.10;;;;;;;-145.01;100.00;64805.59;5079896;28;20040;-59
2023/06/29 03:50:11;;;;;;;0.00;0.00;;;;;;;-145.01;100.00;64805.59;5076114;28;20050;-59
2023/06/29 03:52:39;;;;;;;0.00;0.00;;;;;;;-145.01;100.00;64805.59;5079381;28;20401;-59
2023/06/29 03:55:08;;;;;;;0.00;0.00;;;;;;;-145.01;100.00;64805.59;5082446;28;20511;-59
2023/06/29 03:57:35;;;;;;;0.00;0.00;;;;;;;-145.01;100.00;64805.59;5074170;28;20094;-59
2023/06/29 04:00:05;;;;;;;0.00;0.00;;;;;;;-145.01;100.00;64805.59;5078449;28;20044;-58
2023/06/29 04:02:40;;;;;;;0.00;0.00;;;;;;;-145.01;100.00;64805.59;5083474;28;20052;-59
2023/06/29 04:05:08;;;;;;;0.08;0.08;;;;;;;-145.01;100.00;64805.59;5075718;28;20037;-58
2023/06/29 04:07:35;;;;;;;0.00;0.00;;;;;;;-145.01;100.00;64805.59;5080057;28;20044;-59
2023/06/29 04:10:03;;;;;;;0.10;0.10;;;;;;;-145.01;100.00;64805.59;5073659;28;20049;-59
2023/06/29 04:12:31;;;;;;;0.00;0.00;;;;;;;-145.01;100.00;64805.59;5074961;28;20040;-59
2023/06/29 04:15:00;;;;;;;0.00;0.00;;;;;;;-145.01;100.00;64805.59;5079612;28;20076;-59
2023/06/29 04:17:28;;;;;;;0.05;0.05;;;;;;;-145.01;100.00;64805.59;5075045;28;20051;-59
2023/06/29 04:19:56;;;;;;;0.10;0.10;;;;;;;-145.01;100.00;64805.59;5081193;28;20414;-59
2023/06/29 04:22:23;;;;;;;0.10;0.10;;;;;;;-145.01;100.00;64805.59;5077560;28;20093;-58
2023/06/29 04:24:51;;;;;;;0.28;0.10;;;;;;;-145.01;100.00;64805.59;5079916;28;20044;-59
2023/06/29 04:27:19;;;;;;;0.03;0.03;;;;;;;-145.01;100.00;64805.59;5074350;28;20559;-59
2023/06/29 04:29:46;;;;;;;0.00;0.00;;;;;;;-145.01;100.00;64805.59;5078351;28;20479;-59
2023/06/29 04:32:14;;;;;;;0.10;0.10;;;;;;;-145.01;100.00;64805.59;5077622;28;20047;-59
2023/06/29 04:34:42;;;;;;;0.00;0.00;;;;;;;-145.01;100.00;64805.59;5076513;28;20040;-59
2023/06/29 04:37:10;;;;;;;0.00;0.00;;;;;;;-145.01;100.00;64805.59;5074679;28;20488;-59
2023/06/29 04:39:37;;;;;;;0.00;0.00;;;;;;;-145.01;100.00;64805.59;5079414;28;20141;-61
2023/06/29 04:42:10;;;;;;;0.10;0.10;;;;;;;-145.01;100.00;64805.59;5081220;28;20049;-60
2023/06/29 04:44:38;;;;;;;0.00;0.00;;;;;;;-145.01;100.00;64805.59;5082666;28;20089;-60
2023/06/29 04:47:05;;;;;;;0.08;0.08;;;;;;;-145.01;100.00;64805.59;5080309;28;20064;-60
2023/06/29 04:49:37;;;;;;;0.00;0.00;;;;;;;-145.01;100.00;64805.59;5075697;28;20114;-60
2023/06/29 04:52:09;;;;;;;0.00;0.00;;;;;;;-145.01;100.00;64805.59;5075029;28;20043;-60
2023/06/29 04:54:37;;;;;;;0.00;0.00;;;;;;;-145.01;100.00;64805.59;5078629;28;20075;-60
2023/06/29 04:57:05;;;;;;;0.00;0.00;;;;;;;-145.01;100.00;64805.59;5078085;28;20058;-60
2023/06/29 04:59:32;;;;;;;0.00;0.00;;;;;;;-145.01;100.00;64805.59;5075774;28;20048;-60
2023/06/29 05:02:00;;;;;;;0.03;0.03;;;;;;;-145.01;100.00;64805.59;5076603;28;20051;-60
2023/06/29 05:04:27;;;;;;;0.00;0.00;;;;;;;-145.01;100.00;64805.59;5082667;28;20075;-60
2023/06/29 05:06:55;;;;;;;0.00;0.00;;;;;;;-145.01;100.00;64805.59;5074620;28;20066;-60
2023/06/29 05:09:24;;;;;;;0.10;0.10;;;;;;;-145.01;100.00;64805.59;5074914;28;20039;-59
2023/06/29 05:11:51;;;;;;;0.00;0.00;;;;;;;-145.01;100.00;64805.59;5077873;28;20048;-59
2023/06/29 05:14:19;;;;;;;0.00;0.00;;;;;;;-145.01;100.00;64805.59;5079847;28;20036;-59
2023/06/29 05:16:46;;;;;;;0.00;0.00;;;;;;;-145.01;100.00;64805.59;5078875;28;20047;-59
2023/06/29 05:19:14;;;;;;;0.00;0.00;;;;;;;-145.01;100.00;64805.59;5073303;28;20037;-59
2023/06/29 05:21:41;;;;;;;0.00;0.00;;;;;;;-145.01;100.00;64805.59;5077644;28;20060;-59
2023/06/29 05:24:09;;;;;;;0.00;0.00;;;;;;;-145.01;100.00;64805.59;5079913;28;20041;-59
2023/06/29 05:26:38;;;;;;;0.00;0.00;;;;;;;-145.01;100.00;64805.59;5077444;28;20048;-59
2023/06/29 05:29:05;;;;;;;0.20;0.10;;;;;;;-145.01;100.00;64805.59;5075961;28;20149;-59
2023/06/29 05:31:32;;;;;;;0.10;0.10;;;;;;;-145.01;100.00;64805.59;5076412;28;20055;-58
2023/06/29 05:34:00;;;;;;;0.00;0.00;;;;;;;-145.01;100.00;64805.59;5072832;28;20106;-59
2023/06/29 05:36:29;;;;;;;0.00;0.00;;;;;;;-145.01;100.00;64805.59;5077546;28;20049;-59
2023/06/29 05:38:56;;;;;;;0.00;0.00;;;;;;;-145.01;100.00;64805.59;5083527;28;20054;-59
2023/06/29 05:41:24;;;;;;;0.00;0.00;;;;;;;-145.01;100.00;64805.59;5071989;28;20146;-59
2023/06/29 05:43:52;;;;;;;0.00;0.00;;;;;;;-145.01;100.00;64805.59;5079498;28;20040;-59
2023/06/29 05:46:20;;;;;;;0.08;0.08;;;;;;;-145.01;100.00;64805.59;5080235;28;20494;-59
2023/06/29 05:48:47;;;;;;;0.00;0.00;;;;;;;-145.01;100.00;64805.59;5073143;28;20421;-59
2023/06/29 05:51:15;;;;;;;0.00;0.00;;;;;;;-145.01;100.00;64805.59;5072629;28;20052;-59
2023/06/29 05:53:42;;;;;;;0.00;0.00;;;;;;;-145.01;100.00;64805.59;5082518;28;20499;-59
2023/06/29 05:56:09;;;;;;;0.10;0.10;;;;;;;-145.01;100.00;64805.59;5079432;28;20623;-59
2023/06/29 05:58:37;;;;;;;0.10;0.10;;;;;;;-145.01;100.00;64805.59;5078348;28;20402;-59
2023/06/29 06:01:05;;;;;;;0.00;0.00;;;;;;;-145.01;100.00;64805.59;5077953;28;20040;-59
2023/06/29 06:03:33;;;;;;;0.00;0.00;;;;;;;-145.01;100.00;64805.59;5077916;28;20044;-60
2023/06/29 06:06:00;;;;;;;0.00;0.00;;;;;;;-145.01;100.00;64805.59;5073280;28;20055;-59
2023/06/29 06:08:27;;;;;;;0.00;0.00;;;;;;;-145.01;100.00;64805.59;5064600;28;20458;-60
2023/06/29 06:10:55;;;;;;;0.00;0.00;;;;;;;-145.01;100.00;64805.59;5064525;28;20040;-59
2023/06/29 06:13:22;;;;;;;0.00;0.00;;;;;;;-145.01;100.00;64805.59;5063956;28;20113;-60
2023/06/29 06:15:49;;;;;;;0.00;0.00;;;;;;;-145.01;100.00;64805.59;5065670;28;20068;-60
2023/06/29 06:18:18;;;;;;;0.00;0.00;;;;;;;-145.01;100.00;64805.59;5065510;28;20043;-59
2023/06/29 06:20:49;;;;;;;0.67;0.27;;;;;;;-145.01;100.00;64805.59;5070928;28;20122;-61
2023/06/29 06:23:21;;;;;;;0.00;0.00;;;;;;;-145.01;100.00;64805.59;5070466;28;20405;-60
2023/06/29 06:25:48;;;;;;;0.00;0.00;;;;;;;-145.01;100.00;64805.59;5069390;28;20306;-58
2023/06/29 06:28:16;;;;;;;0.00;0.00;;;;;;;-145.01;100.00;64805.59;5065759;28;20048;-58
2023/06/29 06:30:43;;;;;;;0.00;0.00;;;;;;;-145.01;100.00;64805.59;5068036;28;20190;-58
2023/06/29 06:33:12;;;;;;;0.00;0.00;;;;;;;-145.01;100.00;64805.59;5065922;28;20051;-58
2023/06/29 06:35:41;;;;;;;0.00;0.00;;;;;;;-145.01;100.00;64805.59;5071845;28;20440;-58
2023/06/29 06:38:08;;;;;;;0.00;0.00;;;;;;;-145.01;100.00;64805.59;5057577;28;20594;-58
2023/06/29 06:40:36;;;;;;;0.00;0.00;;;;;;;-145.01;100.00;64805.59;5070540;28;20040;-58
2023/06/29 06:43:03;;;;;;;0.20;0.10;;;;;;;-145.01;100.00;64805.59;5062047;28;20723;-58
2023/06/29 06:45:31;;;;;;;0.17;0.08;;;;;;;-145.01;100.00;64805.59;5068308;28;20136;-59
2023/06/29 06:47:58;;;;;;;0.00;0.00;;;;;;;-145.01;100.00;64805.59;5067950;28;20047;-59
2023/06/29 06:50:26;;;;;;;0.00;0.00;;;;;;;-145.01;100.00;64805.59;5069868;28;20445;-59
2023/06/29 06:52:55;;;;;;;0.25;0.10;;;;;;;-145.01;100.00;64805.59;5066910;28;20659;-59
2023/06/29 06:55:23;;;;;;;0.00;0.00;;;;;;;-145.01;100.00;64805.59;5066719;28;20142;-58
2023/06/29 06:57:51;;;;;;;0.00;0.00;;;;;;;-145.01;100.00;64805.59;5065853;28;20518;-59
2023/06/29 07:00:19;;;;;;;0.00;0.00;;;;;;;-145.01;100.00;64805.59;5060913;28;20044;-59
2023/06/29 07:02:46;;;;;;;0.00;0.00;;;;;;;-145.01;100.00;64805.59;5064390;28;20024;-59
2023/06/29 07:05:14;;;;;;;0.00;0.00;;;;;;;-145.01;100.00;64805.59;5069514;28;20457;-58
2023/06/29 07:07:42;;;;;;;0.00;0.00;;;;;;;-145.01;100.00;64805.59;5066736;28;20052;-59
2023/06/29 07:10:11;;;;;;;0.10;0.10;;;;;;;-145.01;100.00;64805.59;5063834;28;20407;-59
2023/06/29 07:12:39;;;;;;;0.00;0.00;;;;;;;-145.01;100.00;64805.59;5063989;28;20049;-60
2023/06/29 07:15:07;;;;;;;0.00;0.00;;;;;;;-145.01;100.00;64805.59;5063526;28;20646;-58
2023/06/29 07:17:35;;;;;;;0.00;0.00;;;;;;;-145.01;100.00;64805.59;5070586;28;20046;-58
2023/06/29 07:20:03;;;;;;;0.00;0.00;;;;;;;-145.01;100.00;64805.59;5064652;28;20098;-60
2023/06/29 07:22:31;;;;;;;0.00;0.00;;;;;;;-145.01;100.00;64805.59;5063159;28;20123;-59
2023/06/29 07:24:58;;;;;;;0.00;0.00;;;;;;;-145.01;100.00;64805.59;5065696;28;20135;-58
2023/06/29 07:27:27;;;;;;;0.00;0.00;;;;;;;-145.01;100.00;64805.59;5066299;28;20072;-60
2023/06/29 07:30:01;;;;;;;0.00;0.00;;;;;;;-145.01;100.00;64805.59;5064728;28;20036;-59
2023/06/29 07:32:29;;;;;;;0.00;0.00;;;;;;;-145.01;100.00;64805.59;5065034;28;20343;-58
2023/06/29 07:34:56;;;;;;;0.00;0.00;;;;;;;-145.01;100.00;64805.59;5067860;28;20056;-58
2023/06/29 07:37:24;;;;;;;0.00;0.00;;;;;;;-145.01;100.00;64805.59;5063002;28;20059;-60
2023/06/29 07:39:51;;;;;;;0.00;0.00;;;;;;;-145.01;100.00;64805.59;5063826;28;20044;-59
2023/06/29 07:42:18;;;;;;;0.00;0.00;;;;;;;-145.01;100.00;64805.59;5065833;28;20087;-58
2023/06/29 07:44:47;;;;;;;0.00;0.00;;;;;;;-145.01;100.00;64805.59;5069005;28;20199;-60
2023/06/29 07:47:15;;;;;;;0.00;0.00;;;;;;;-145.01;100.00;64805.59;5068326;28;20047;-58
2023/06/29 07:49:42;;;;;;;0.00;0.00;;;;;;;-145.01;100.00;64805.59;5062182;28;20044;-59
2023/06/29 07:52:10;;;;;;;0.00;0.00;;;;;;;-145.01;100.00;64805.59;5065828;28;20420;-59
2023/06/29 07:54:37;;;;;;;0.00;0.00;;;;;;;-145.01;100.00;64805.59;5072645;28;20055;-59
2023/06/29 07:57:05;;;;;;;0.00;0.00;;;;;;;-145.01;100.00;64805.59;5068928;28;20158;-58
2023/06/29 07:59:33;;;;;;;0.00;0.00;;;;;;;-145.01;100.00;64805.59;5065839;28;20570;-59
2023/06/29 08:02:01;;;;;;;0.00;0.00;;;;;;;-145.01;100.00;64805.59;5064037;28;20048;-59
2023/06/29 08:04:29;;;;;;;0.00;0.00;;;;;;;-145.01;100.00;64805.59;5064814;28;20056;-59
2023/06/29 08:06:56;;;;;;;0.00;0.00;;;;;;;-145.01;100.00;64805.59;5072267;28;20044;-59
2023/06/29 08:09:23;;;;;;;0.00;0.00;;;;;;;-145.01;100.00;64805.59;5066769;28;20303;-58
2023/06/29 08:11:51;;;;;;;0.00;0.00;;;;;;;-145.01;100.00;64805.59;5064468;28;20052;-58
2023/06/29 08:14:18;;;;;;;0.00;0.00;;;;;;;-145.01;100.00;64805.59;5068374;28;20573;-58
2023/06/29 08:16:46;;;;;;;0.03;0.03;;;;;;;-145.01;100.00;64805.59;5070872;28;20040;-59
2023/06/29 08:19:16;;;;;;;0.00;0.00;;;;;;;-145.01;100.00;64805.59;5069501;28;20128;-58
2023/06/29 08:21:43;;;;;;;0.00;0.00;;;;;;;-145.01;100.00;64805.59;5067533;28;20093;-58
2023/06/29 08:24:10;;;;;;;0.00;0.00;;;;;;;-145.01;100.00;64805.59;5067646;28;20133;-58
2023/06/29 08:26:38;;;;;;;0.00;0.00;;;;;;;-145.01;100.00;64805.59;5067806;28;20434;-58
2023/06/29 08:29:05;;;;;;;0.00;0.00;;;;;;;-145.01;100.00;64805.59;5072626;28;20041;-58
2023/06/29 08:31:32;;;;;;;0.00;0.00;;;;;;;-145.01;100.00;64805.59;5068840;28;20039;-58
2023/06/29 08:34:00;;;;;;;0.00;0.00;;;;;;;-145.01;100.00;64805.59;5062111;28;20040;-59
2023/06/29 08:36:29;;;;;;;0.00;0.00;;;;;;;-145.01;100.00;64805.59;5063739;28;20067;-59
2023/06/29 08:38:57;;;;;;;0.00;0.00;;;;;;;-145.01;100.00;64805.59;5067822;28;20131;-58
2023/06/29 08:41:24;;;;;;;0.00;0.00;;;;;;;-145.01;100.00;64805.59;5068459;28;20070;-59
2023/06/29 08:43:52;;;;;;;0.00;0.00;;;;;;;-145.01;100.00;64805.59;5068642;28;20126;-59
2023/06/29 08:46:20;;;;;;;0.00;0.00;;;;;;;-145.01;100.00;64805.59;5061894;28;20036;-60
2023/06/29 08:48:47;;;;;;;0.00;0.00;;;;;;;-145.01;100.00;64805.59;5060285;28;20041;-60
2023/06/29 08:51:16;;;;;;;0.00;0.00;;;;;;;-145.01;100.00;64805.59;5070563;28;20055;-60
2023/06/29 08:53:44;;;;;;;0.00;0.00;;;;;;;-145.01;100.00;64805.59;5069347;28;20101;-60
2023/06/29 08:56:15;;;;;;;0.10;0.10;;;;;;;-145.01;100.00;64805.59;5072439;28;20055;-60
2023/06/29 08:58:43;;;;;;;0.00;0.00;;;;;;;-145.01;100.00;64805.59;5066373;28;20124;-60
2023/06/29 09:01:11;;;;;;;0.00;0.00;;;;;;;-145.01;100.00;64805.59;5066126;28;20048;-60
2023/06/29 09:03:38;;;;;;;0.10;0.10;;;;;;;-145.01;100.00;64805.59;5068956;28;20029;-60
2023/06/29 09:06:06;;;;;;;0.00;0.00;;;;;;;-145.01;100.00;64805.59;5069562;28;20158;-60
2023/06/29 09:08:37;;;;;;;0.00;0.00;;;;;;;-145.01;100.00;64805.59;5068192;28;20044;-60
2023/06/29 09:11:05;;;;;;;0.00;0.00;;;;;;;-145.01;100.00;64805.59;5068215;28;20053;-60
2023/06/29 09:13:34;;;;;;;0.00;0.00;;;;;;;-145.01;100.00;64805.59;5070727;28;20071;-60
2023/06/29 09:16:03;;;;;;;0.00;0.00;;;;;;;-145.01;100.00;64805.59;5073890;28;20537;-60
2023/06/29 09:18:31;;;;;;;0.00;0.00;;;;;;;-145.01;100.00;64805.59;5067348;28;20064;-57
2023/06/29 09:20:58;;;;;;;0.00;0.00;;;;;;;-145.01;100.00;64805.59;5068885;28;20051;-60
2023/06/29 09:23:27;;;;;;;0.00;0.00;;;;;;;-145.01;100.00;64805.59;5067236;28;20657;-60
2023/06/29 09:25:55;;;;;;;0.00;0.00;;;;;;;-145.01;100.00;64805.59;5071080;28;20055;-60
2023/06/29 09:28:24;;;;;;;0.00;0.00;;;;;;;-145.01;100.00;64805.59;5069317;28;20048;-58
2023/06/29 09:30:51;;;;;;;0.00;0.00;;;;;;;-145.01;100.00;64805.59;5070222;28;20044;-59
2023/06/29 09:33:19;;;;;;;0.00;0.00;;;;;;;-145.01;100.00;64805.59;5071419;28;20039;-60
2023/06/29 09:35:47;;;;;;;0.00;0.00;;;;;;;-145.01;100.00;64805.59;5065030;28;20044;-58
2023/06/29 09:38:15;;;;;;;0.00;0.00;;;;;;;-145.01;100.00;64805.59;5064727;28;20461;-60
2023/06/29 09:40:49;;;;;;;0.00;0.00;;;;;;;-145.01;100.00;64805.59;5062873;28;20044;-60
2023/06/29 09:43:17;;;;;;;0.00;0.00;;;;;;;-145.01;100.00;64805.59;5070126;28;20469;-60
2023/06/29 09:45:47;;;;;;;0.00;0.00;;;;;;;-145.01;100.00;64805.59;5065878;28;20068;-60
2023/06/29 09:48:14;;;;;;;0.00;0.00;;;;;;;-145.01;100.00;64805.59;5068506;28;20044;-60
2023/06/29 09:50:53;;;;;;;0.00;0.00;;;;;;;-145.01;100.00;64805.59;5063790;28;20063;-60
2023/06/29 09:53:28;;;;;;;0.00;0.00;;;;;;;-145.01;100.00;64805.59;5064530;28;20036;-60
2023/06/29 09:55:57;;;;;;;0.00;0.00;;;;;;;-145.01;100.00;64805.59;5066498;28;20036;-60
2023/06/29 09:58:24;;;;;;;0.22;0.05;;;;;;;-145.01;100.00;64805.59;5068125;28;20429;-60
2023/06/29 10:00:53;;;;;;;0.00;0.00;;;;;;;-145.01;100.00;64805.59;5069799;28;20063;-60
2023/06/29 10:03:20;;;;;;;0.00;0.00;;;;;;;-145.01;100.00;64805.59;5067253;28;20663;-59
2023/06/29 10:05:47;;;;;;;0.00;0.00;;;;;;;-145.01;100.00;64805.59;5064397;28;20044;-59
2023/06/29 10:08:16;;;;;;;0.00;0.00;;;;;;;-145.01;100.00;64805.59;5067917;28;20040;-59
2023/06/29 10:10:43;;;;;;;0.00;0.00;;;;;;;-145.01;100.00;64805.59;5063900;28;20131;-59
2023/06/29 10:13:10;;;;;;;0.00;0.00;;;;;;;-145.01;100.00;64805.59;5064693;28;20125;-60
2023/06/29 10:15:38;;;;;;;0.00;0.00;;;;;;;-145.01;100.00;64805.59;5063740;28;20507;-59
2023/06/29 10:18:10;;;;;;;0.00;0.00;;;;;;;-145.01;100.00;64805.59;5067515;28;20047;-59
2023/06/29 10:20:38;;;;;;;0.00;0.00;;;;;;;-145.01;100.00;64805.59;5068102;28;20060;-59
2023/06/29 10:23:05;;;;;;;0.00;0.00;;;;;;;-145.01;100.00;64805.59;5074518;28;20043;-60
2023/06/29 10:25:33;;;;;;;0.10;0.00;;;;;;;-145.01;100.00;64805.59;5068361;28;20065;-60
2023/06/29 10:28:01;;;;;;;0.00;0.00;;;;;;;-145.01;100.00;64805.59;5067110;28;20105;-59
2023/06/29 10:30:28;;;;;;;0.00;0.00;;;;;;;-145.01;100.00;64805.59;5071083;28;20036;-60
2023/06/29 10:32:56;;;;;;;0.00;0.00;;;;;;;-145.01;100.00;64805.59;5066208;28;20039;-59
2023/06/29 10:35:25;;;;;;;0.00;0.00;;;;;;;-145.01;100.00;64805.59;5065484;28;20051;-60
2023/06/29 10:37:53;;;;;;;0.00;0.00;;;;;;;-145.01;100.00;64805.59;5071911;28;20501;-59
2023/06/29 10:40:21;;;;;;;0.00;0.00;;;;;;;-145.01;100.00;64805.59;5062529;28;20040;-59
2023/06/29 10:42:50;;;;;;;0.00;0.00;;;;;;;-145.01;100.00;64805.59;5067374;28;20043;-59
2023/06/29 10:45:30;;;;;;;0.00;0.00;;;;;;;-145.01;100.00;64805.59;5061009;28;20048;-59
2023/06/29 10:48:02;;;;;;;0.20;0.00;;;;;;;-145.01;100.00;64805.59;5068045;28;20121;-59
2023/06/29 10:50:31;;;;;;;0.00;0.00;;;;;;;-145.01;100.00;64805.59;5071654;28;20055;-59
2023/06/29 10:52:59;;;;;;;0.00;0.00;;;;;;;-145.01;100.00;64805.59;5069080;28;20135;-59
2023/06/29 10:55:28;;;;;;;0.00;0.00;;;;;;;-145.01;100.00;64805.59;5063568;28;20045;-59
2023/06/29 10:57:57;;;;;;;0.00;0.00;;;;;;;-145.01;100.00;64805.59;5066918;28;20078;-59
2023/06/29 11:00:25;;;;;;;0.00;0.00;;;;;;;-145.01;100.00;64805.59;5064644;28;20052;-60
2023/06/29 11:02:52;;;;;;;0.00;0.00;;;;;;;-145.01;100.00;64805.59;5068227;28;20044;-59
2023/06/29 11:05:20;;;;;;;0.00;0.00;;;;;;;-145.01;100.00;64805.59;5066746;28;20064;-60
2023/06/29 11:07:50;;;;;;;0.00;0.00;;;;;;;-145.01;100.00;64805.59;5069943;28;20098;-59
2023/06/29 11:10:19;;;;;;;0.00;0.00;;;;;;;-145.01;100.00;64805.59;5063477;28;20037;-59
2023/06/29 11:12:47;;;;;;;0.00;0.00;;;;;;;-145.01;100.00;64805.59;5063707;28;20041;-59